sensor_id;sensor_type;location;lat;lon;timestamp;P1;durP1;ratioP1;P2;durP2;ratioP2
47089;SDS011;32840;52.516;13.294;2023-05-28T00:00:30;8.60;;;5.18;;
47089;SDS011;32840;52.516;13.294;2023-05-28T00:03:15;11.20;;;5.82;;
47089;SDS011;32840;52.516;13.294;2023-05-28T00:06:02;11.23;;;5.20;;
47089;SDS011;32840;52.516;13.294;2023-05-28T00:08:47;11.13;;;4.60;;
47089;SDS011;32840;52.516;13.294;2023-05-28T00:11:32;12.43;;;5.28;;
47089;SDS011;32840;52.516;13.294;2023-05-28T00:14:17;9.00;;;5.20;;
47089;SDS011;32840;52.516;13.294;2023-05-28T00:17:02;8.40;;;5.07;;
47089;SDS011;32840;52.516;13.294;2023-05-28T00:19:47;11.25;;;5.05;;
47089;SDS011;32840;52.516;13.294;2023-05-28T00:22:32;9.35;;;5.70;;
47089;SDS011;32840;52.516;13.294;2023-05-28T00:25:17;12.25;;;5.65;;
47089;SDS011;32840;52.516;13.294;2023-05-28T00:28:02;12.02;;;5.22;;
47089;SDS011;32840;52.516;13.294;2023-05-28T00:30:47;11.27;;;5.38;;
47089;SDS011;32840;52.516;13.294;2023-05-28T00:33:31;10.77;;;5.18;;
47089;SDS011;32840;52.516;13.294;2023-05-28T00:36:16;11.50;;;5.60;;
47089;SDS011;32840;52.516;13.294;2023-05-28T00:39:02;9.38;;;5.50;;
47089;SDS011;32840;52.516;13.294;2023-05-28T00:41:58;9.80;;;4.90;;
47089;SDS011;32840;52.516;13.294;2023-05-28T00:44:45;13.82;;;5.72;;
47089;SDS011;32840;52.516;13.294;2023-05-28T00:47:30;9.85;;;5.28;;
47089;SDS011;32840;52.516;13.294;2023-05-28T00:50:15;7.93;;;4.75;;
47089;SDS011;32840;52.516;13.294;2023-05-28T00:53:01;8.45;;;5.18;;
47089;SDS011;32840;52.516;13.294;2023-05-28T00:55:46;13.82;;;5.70;;
47089;SDS011;32840;52.516;13.294;2023-05-28T00:58:32;7.55;;;4.78;;
47089;SDS011;32840;52.516;13.294;2023-05-28T01:01:19;11.48;;;5.40;;
47089;SDS011;32840;52.516;13.294;2023-05-28T01:04:04;11.25;;;5.53;;
47089;SDS011;32840;52.516;13.294;2023-05-28T01:06:49;11.52;;;6.30;;
47089;SDS011;32840;52.516;13.294;2023-05-28T01:09:34;10.77;;;5.97;;
47089;SDS011;32840;52.516;13.294;2023-05-28T01:12:19;14.18;;;5.45;;
47089;SDS011;32840;52.516;13.294;2023-05-28T01:15:05;13.18;;;6.53;;
47089;SDS011;32840;52.516;13.294;2023-05-28T01:17:58;11.57;;;5.72;;
47089;SDS011;32840;52.516;13.294;2023-05-28T01:20:44;11.38;;;5.15;;
47089;SDS011;32840;52.516;13.294;2023-05-28T01:23:29;11.20;;;5.78;;
47089;SDS011;32840;52.516;13.294;2023-05-28T01:26:16;13.13;;;6.03;;
47089;SDS011;32840;52.516;13.294;2023-05-28T01:29:01;12.68;;;5.88;;
47089;SDS011;32840;52.516;13.294;2023-05-28T01:31:57;11.55;;;5.55;;
47089;SDS011;32840;52.516;13.294;2023-05-28T01:34:42;13.70;;;5.55;;
47089;SDS011;32840;52.516;13.294;2023-05-28T01:37:28;8.30;;;5.53;;
47089;SDS011;32840;52.516;13.294;2023-05-28T01:40:15;12.25;;;5.63;;
47089;SDS011;32840;52.516;13.294;2023-05-28T01:43:02;14.40;;;5.68;;
47089;SDS011;32840;52.516;13.294;2023-05-28T01:45:47;11.70;;;5.30;;
47089;SDS011;32840;52.516;13.294;2023-05-28T01:48:32;10.15;;;5.60;;
47089;SDS011;32840;52.516;13.294;2023-05-28T01:51:22;13.43;;;5.55;;
47089;SDS011;32840;52.516;13.294;2023-05-28T01:54:07;14.50;;;4.95;;
47089;SDS011;32840;52.516;13.294;2023-05-28T01:56:52;9.65;;;4.63;;
47089;SDS011;32840;52.516;13.294;2023-05-28T01:59:37;8.18;;;4.93;;
47089;SDS011;32840;52.516;13.294;2023-05-28T02:02:23;12.38;;;5.65;;
47089;SDS011;32840;52.516;13.294;2023-05-28T02:05:10;10.05;;;4.65;;
47089;SDS011;32840;52.516;13.294;2023-05-28T02:07:55;9.43;;;4.93;;
47089;SDS011;32840;52.516;13.294;2023-05-28T02:10:42;12.88;;;5.60;;
47089;SDS011;32840;52.516;13.294;2023-05-28T02:13:27;12.18;;;5.82;;
47089;SDS011;32840;52.516;13.294;2023-05-28T02:16:12;14.40;;;5.13;;
47089;SDS011;32840;52.516;13.294;2023-05-28T02:19:01;11.30;;;5.50;;
47089;SDS011;32840;52.516;13.294;2023-05-28T02:21:47;10.43;;;5.18;;
47089;SDS011;32840;52.516;13.294;2023-05-28T02:24:32;10.23;;;5.15;;
47089;SDS011;32840;52.516;13.294;2023-05-28T02:27:16;10.93;;;5.50;;
47089;SDS011;32840;52.516;13.294;2023-05-28T02:30:02;11.55;;;5.45;;
47089;SDS011;32840;52.516;13.294;2023-05-28T02:32:47;12.25;;;5.18;;
47089;SDS011;32840;52.516;13.294;2023-05-28T02:35:32;14.10;;;5.30;;
47089;SDS011;32840;52.516;13.294;2023-05-28T02:38:17;12.40;;;4.90;;
47089;SDS011;32840;52.516;13.294;2023-05-28T02:41:02;11.32;;;5.88;;
47089;SDS011;32840;52.516;13.294;2023-05-28T02:43:47;11.18;;;5.65;;
47089;SDS011;32840;52.516;13.294;2023-05-28T02:46:32;11.15;;;5.22;;
47089;SDS011;32840;52.516;13.294;2023-05-28T02:49:17;11.95;;;5.43;;
47089;SDS011;32840;52.516;13.294;2023-05-28T02:52:02;13.98;;;6.05;;
47089;SDS011;32840;52.516;13.294;2023-05-28T02:54:47;10.75;;;5.00;;
47089;SDS011;32840;52.516;13.294;2023-05-28T02:57:32;11.85;;;5.45;;
47089;SDS011;32840;52.516;13.294;2023-05-28T03:00:17;10.63;;;5.70;;
47089;SDS011;32840;52.516;13.294;2023-05-28T03:03:02;11.90;;;5.05;;
47089;SDS011;32840;52.516;13.294;2023-05-28T03:05:47;14.52;;;6.20;;
47089;SDS011;32840;52.516;13.294;2023-05-28T03:08:33;10.10;;;5.22;;
47089;SDS011;32840;52.516;13.294;2023-05-28T03:11:17;14.75;;;6.07;;
47089;SDS011;32840;52.516;13.294;2023-05-28T03:14:02;11.43;;;6.13;;
47089;SDS011;32840;52.516;13.294;2023-05-28T03:16:47;11.68;;;5.80;;
47089;SDS011;32840;52.516;13.294;2023-05-28T03:19:32;14.25;;;5.80;;
47089;SDS011;32840;52.516;13.294;2023-05-28T03:22:18;12.68;;;5.75;;
47089;SDS011;32840;52.516;13.294;2023-05-28T03:25:03;13.82;;;5.60;;
47089;SDS011;32840;52.516;13.294;2023-05-28T03:27:50;11.85;;;5.13;;
47089;SDS011;32840;52.516;13.294;2023-05-28T03:30:34;11.85;;;5.68;;
47089;SDS011;32840;52.516;13.294;2023-05-28T03:33:19;11.32;;;6.03;;
47089;SDS011;32840;52.516;13.294;2023-05-28T03:36:04;11.25;;;5.72;;
47089;SDS011;32840;52.516;13.294;2023-05-28T03:38:51;9.52;;;5.63;;
47089;SDS011;32840;52.516;13.294;2023-05-28T03:41:36;10.73;;;5.25;;
47089;SDS011;32840;52.516;13.294;2023-05-28T03:44:21;9.70;;;5.30;;
47089;SDS011;32840;52.516;13.294;2023-05-28T03:47:06;13.80;;;5.75;;
47089;SDS011;32840;52.516;13.294;2023-05-28T03:49:51;11.85;;;5.07;;
47089;SDS011;32840;52.516;13.294;2023-05-28T03:52:36;10.43;;;5.20;;
47089;SDS011;32840;52.516;13.294;2023-05-28T03:55:21;11.82;;;6.32;;
47089;SDS011;32840;52.516;13.294;2023-05-28T03:58:06;12.48;;;5.72;;
47089;SDS011;32840;52.516;13.294;2023-05-28T04:00:51;10.55;;;5.07;;
47089;SDS011;32840;52.516;13.294;2023-05-28T04:03:36;10.88;;;5.40;;
47089;SDS011;32840;52.516;13.294;2023-05-28T04:06:21;11.98;;;5.60;;
47089;SDS011;32840;52.516;13.294;2023-05-28T04:09:07;15.65;;;5.85;;
47089;SDS011;32840;52.516;13.294;2023-05-28T04:11:52;12.90;;;5.55;;
47089;SDS011;32840;52.516;13.294;2023-05-28T04:14:37;13.52;;;5.70;;
47089;SDS011;32840;52.516;13.294;2023-05-28T04:17:23;11.45;;;5.88;;
47089;SDS011;32840;52.516;13.294;2023-05-28T04:20:09;10.80;;;5.63;;
47089;SDS011;32840;52.516;13.294;2023-05-28T04:22:54;9.13;;;5.43;;
47089;SDS011;32840;52.516;13.294;2023-05-28T04:25:39;14.80;;;5.90;;
47089;SDS011;32840;52.516;13.294;2023-05-28T04:28:24;11.88;;;5.80;;
47089;SDS011;32840;52.516;13.294;2023-05-28T04:31:12;12.02;;;5.95;;
47089;SDS011;32840;52.516;13.294;2023-05-28T04:33:57;9.63;;;5.57;;
47089;SDS011;32840;52.516;13.294;2023-05-28T04:36:41;9.38;;;5.05;;
47089;SDS011;32840;52.516;13.294;2023-05-28T04:39:27;12.38;;;5.47;;
47089;SDS011;32840;52.516;13.294;2023-05-28T04:42:12;9.90;;;5.65;;
47089;SDS011;32840;52.516;13.294;2023-05-28T04:45:01;8.70;;;4.65;;
47089;SDS011;32840;52.516;13.294;2023-05-28T04:47:46;12.32;;;6.00;;
47089;SDS011;32840;52.516;13.294;2023-05-28T04:50:32;8.38;;;5.00;;
47089;SDS011;32840;52.516;13.294;2023-05-28T04:53:18;9.38;;;4.55;;
47089;SDS011;32840;52.516;13.294;2023-05-28T04:56:03;11.70;;;5.55;;
47089;SDS011;32840;52.516;13.294;2023-05-28T04:58:48;10.50;;;5.65;;
47089;SDS011;32840;52.516;13.294;2023-05-28T05:01:33;11.75;;;5.18;;
47089;SDS011;32840;52.516;13.294;2023-05-28T05:04:18;11.75;;;5.30;;
47089;SDS011;32840;52.516;13.294;2023-05-28T05:07:03;9.75;;;5.55;;
47089;SDS011;32840;52.516;13.294;2023-05-28T05:09:48;12.30;;;5.05;;
47089;SDS011;32840;52.516;13.294;2023-05-28T05:12:33;10.70;;;4.72;;
47089;SDS011;32840;52.516;13.294;2023-05-28T05:15:18;10.63;;;5.25;;
47089;SDS011;32840;52.516;13.294;2023-05-28T05:18:03;11.32;;;5.10;;
47089;SDS011;32840;52.516;13.294;2023-05-28T05:20:48;9.82;;;5.10;;
47089;SDS011;32840;52.516;13.294;2023-05-28T05:23:33;9.55;;;4.97;;
47089;SDS011;32840;52.516;13.294;2023-05-28T05:26:19;10.90;;;5.15;;
47089;SDS011;32840;52.516;13.294;2023-05-28T05:29:03;11.70;;;5.57;;
47089;SDS011;32840;52.516;13.294;2023-05-28T05:31:49;12.13;;;4.95;;
47089;SDS011;32840;52.516;13.294;2023-05-28T05:34:34;9.88;;;5.20;;
47089;SDS011;32840;52.516;13.294;2023-05-28T05:37:19;11.35;;;5.28;;
47089;SDS011;32840;52.516;13.294;2023-05-28T05:40:05;11.85;;;5.05;;
47089;SDS011;32840;52.516;13.294;2023-05-28T05:42:50;8.43;;;4.32;;
47089;SDS011;32840;52.516;13.294;2023-05-28T05:45:35;6.97;;;4.50;;
47089;SDS011;32840;52.516;13.294;2023-05-28T05:48:20;10.52;;;5.10;;
47089;SDS011;32840;52.516;13.294;2023-05-28T05:51:05;11.30;;;5.00;;
47089;SDS011;32840;52.516;13.294;2023-05-28T05:53:50;12.30;;;4.75;;
47089;SDS011;32840;52.516;13.294;2023-05-28T05:56:35;10.20;;;4.53;;
47089;SDS011;32840;52.516;13.294;2023-05-28T05:59:22;10.02;;;4.72;;
47089;SDS011;32840;52.516;13.294;2023-05-28T06:02:06;13.93;;;8.88;;
47089;SDS011;32840;52.516;13.294;2023-05-28T06:04:52;14.63;;;8.65;;
47089;SDS011;32840;52.516;13.294;2023-05-28T06:07:37;12.07;;;7.35;;
47089;SDS011;32840;52.516;13.294;2023-05-28T06:10:21;12.88;;;6.18;;
47089;SDS011;32840;52.516;13.294;2023-05-28T06:13:06;9.35;;;5.38;;
47089;SDS011;32840;52.516;13.294;2023-05-28T06:15:51;11.55;;;5.40;;
47089;SDS011;32840;52.516;13.294;2023-05-28T06:18:36;11.27;;;4.65;;
47089;SDS011;32840;52.516;13.294;2023-05-28T06:21:21;10.00;;;4.32;;
47089;SDS011;32840;52.516;13.294;2023-05-28T06:24:07;7.85;;;4.55;;
47089;SDS011;32840;52.516;13.294;2023-05-28T06:26:52;8.82;;;4.03;;
47089;SDS011;32840;52.516;13.294;2023-05-28T06:29:37;9.85;;;3.95;;
47089;SDS011;32840;52.516;13.294;2023-05-28T06:32:22;6.60;;;3.70;;
47089;SDS011;32840;52.516;13.294;2023-05-28T06:35:07;7.20;;;4.28;;
47089;SDS011;32840;52.516;13.294;2023-05-28T06:37:53;8.68;;;3.85;;
47089;SDS011;32840;52.516;13.294;2023-05-28T06:40:38;7.68;;;3.83;;
47089;SDS011;32840;52.516;13.294;2023-05-28T06:43:23;7.30;;;3.25;;
47089;SDS011;32840;52.516;13.294;2023-05-28T06:46:08;6.88;;;3.83;;
47089;SDS011;32840;52.516;13.294;2023-05-28T06:48:53;13.05;;;4.97;;
47089;SDS011;32840;52.516;13.294;2023-05-28T06:51:38;8.27;;;3.90;;
47089;SDS011;32840;52.516;13.294;2023-05-28T06:54:23;8.38;;;3.63;;
47089;SDS011;32840;52.516;13.294;2023-05-28T06:57:08;8.77;;;3.92;;
47089;SDS011;32840;52.516;13.294;2023-05-28T06:59:53;8.80;;;4.20;;
47089;SDS011;32840;52.516;13.294;2023-05-28T07:02:38;11.32;;;3.97;;
47089;SDS011;32840;52.516;13.294;2023-05-28T07:05:23;6.50;;;3.33;;
47089;SDS011;32840;52.516;13.294;2023-05-28T07:08:08;7.25;;;3.72;;
47089;SDS011;32840;52.516;13.294;2023-05-28T07:10:53;10.18;;;3.65;;
47089;SDS011;32840;52.516;13.294;2023-05-28T07:13:38;10.25;;;4.00;;
47089;SDS011;32840;52.516;13.294;2023-05-28T07:16:24;7.90;;;3.75;;
47089;SDS011;32840;52.516;13.294;2023-05-28T07:19:09;10.15;;;4.10;;
47089;SDS011;32840;52.516;13.294;2023-05-28T07:21:54;10.45;;;5.88;;
47089;SDS011;32840;52.516;13.294;2023-05-28T07:24:39;7.10;;;3.30;;
47089;SDS011;32840;52.516;13.294;2023-05-28T07:27:24;6.15;;;2.95;;
47089;SDS011;32840;52.516;13.294;2023-05-28T07:30:09;6.90;;;2.97;;
47089;SDS011;32840;52.516;13.294;2023-05-28T07:32:54;7.93;;;3.15;;
47089;SDS011;32840;52.516;13.294;2023-05-28T07:35:39;6.07;;;3.15;;
47089;SDS011;32840;52.516;13.294;2023-05-28T07:38:24;8.70;;;3.08;;
47089;SDS011;32840;52.516;13.294;2023-05-28T07:41:09;9.35;;;3.28;;
47089;SDS011;32840;52.516;13.294;2023-05-28T07:43:54;8.57;;;3.38;;
47089;SDS011;32840;52.516;13.294;2023-05-28T07:46:39;7.07;;;2.92;;
47089;SDS011;32840;52.516;13.294;2023-05-28T07:49:23;4.97;;;2.80;;
47089;SDS011;32840;52.516;13.294;2023-05-28T07:52:08;6.57;;;3.35;;
47089;SDS011;32840;52.516;13.294;2023-05-28T07:54:53;6.15;;;2.70;;
47089;SDS011;32840;52.516;13.294;2023-05-28T07:57:38;9.40;;;3.60;;
47089;SDS011;32840;52.516;13.294;2023-05-28T08:00:24;6.75;;;3.28;;
47089;SDS011;32840;52.516;13.294;2023-05-28T08:03:10;9.02;;;3.35;;
47089;SDS011;32840;52.516;13.294;2023-05-28T08:05:55;6.57;;;2.70;;
47089;SDS011;32840;52.516;13.294;2023-05-28T08:08:40;4.63;;;2.67;;
47089;SDS011;32840;52.516;13.294;2023-05-28T08:11:25;9.95;;;2.60;;
47089;SDS011;32840;52.516;13.294;2023-05-28T08:14:10;5.60;;;2.47;;
47089;SDS011;32840;52.516;13.294;2023-05-28T08:16:55;8.35;;;2.65;;
47089;SDS011;32840;52.516;13.294;2023-05-28T08:19:40;6.68;;;2.45;;
47089;SDS011;32840;52.516;13.294;2023-05-28T08:22:25;6.43;;;2.70;;
47089;SDS011;32840;52.516;13.294;2023-05-28T08:25:10;5.30;;;2.53;;
47089;SDS011;32840;52.516;13.294;2023-05-28T08:27:55;6.38;;;2.75;;
47089;SDS011;32840;52.516;13.294;2023-05-28T08:30:40;5.82;;;2.40;;
47089;SDS011;32840;52.516;13.294;2023-05-28T08:33:24;5.05;;;2.35;;
47089;SDS011;32840;52.516;13.294;2023-05-28T08:36:10;5.60;;;2.75;;
47089;SDS011;32840;52.516;13.294;2023-05-28T08:38:55;7.13;;;2.67;;
47089;SDS011;32840;52.516;13.294;2023-05-28T08:41:40;5.47;;;2.53;;
47089;SDS011;32840;52.516;13.294;2023-05-28T08:44:25;6.00;;;2.50;;
47089;SDS011;32840;52.516;13.294;2023-05-28T08:47:10;5.45;;;2.30;;
47089;SDS011;32840;52.516;13.294;2023-05-28T08:49:55;5.78;;;2.30;;
47089;SDS011;32840;52.516;13.294;2023-05-28T08:52:40;7.90;;;2.65;;
47089;SDS011;32840;52.516;13.294;2023-05-28T08:55:27;8.18;;;2.65;;
47089;SDS011;32840;52.516;13.294;2023-05-28T08:58:12;6.68;;;2.50;;
47089;SDS011;32840;52.516;13.294;2023-05-28T09:00:57;9.10;;;2.30;;
47089;SDS011;32840;52.516;13.294;2023-05-28T09:03:42;5.35;;;2.30;;
47089;SDS011;32840;52.516;13.294;2023-05-28T09:06:29;7.22;;;2.58;;
47089;SDS011;32840;52.516;13.294;2023-05-28T09:09:15;8.88;;;2.50;;
47089;SDS011;32840;52.516;13.294;2023-05-28T09:12:04;6.45;;;2.60;;
47089;SDS011;32840;52.516;13.294;2023-05-28T09:14:52;4.40;;;2.20;;
47089;SDS011;32840;52.516;13.294;2023-05-28T09:17:37;5.97;;;2.38;;
47089;SDS011;32840;52.516;13.294;2023-05-28T09:20:24;9.65;;;2.65;;
47089;SDS011;32840;52.516;13.294;2023-05-28T09:23:09;5.38;;;2.58;;
47089;SDS011;32840;52.516;13.294;2023-05-28T09:28:45;8.43;;;2.40;;
47089;SDS011;32840;52.516;13.294;2023-05-28T09:31:31;4.65;;;2.60;;
47089;SDS011;32840;52.516;13.294;2023-05-28T09:34:19;6.30;;;2.80;;
47089;SDS011;32840;52.516;13.294;2023-05-28T09:37:04;6.47;;;2.63;;
47089;SDS011;32840;52.516;13.294;2023-05-28T09:39:59;8.00;;;2.92;;
47089;SDS011;32840;52.516;13.294;2023-05-28T09:42:53;7.07;;;2.95;;
47089;SDS011;32840;52.516;13.294;2023-05-28T09:45:38;7.15;;;2.30;;
47089;SDS011;32840;52.516;13.294;2023-05-28T09:48:23;4.50;;;2.45;;
47089;SDS011;32840;52.516;13.294;2023-05-28T09:51:08;15.32;;;7.95;;
47089;SDS011;32840;52.516;13.294;2023-05-28T09:53:59;13.13;;;3.30;;
47089;SDS011;32840;52.516;13.294;2023-05-28T09:56:47;5.10;;;2.38;;
47089;SDS011;32840;52.516;13.294;2023-05-28T09:59:35;5.05;;;2.47;;
47089;SDS011;32840;52.516;13.294;2023-05-28T10:02:36;4.07;;;2.33;;
47089;SDS011;32840;52.516;13.294;2023-05-28T10:05:27;5.18;;;2.50;;
47089;SDS011;32840;52.516;13.294;2023-05-28T10:08:16;6.15;;;2.95;;
47089;SDS011;32840;52.516;13.294;2023-05-28T10:11:03;7.22;;;2.63;;
47089;SDS011;32840;52.516;13.294;2023-05-28T10:13:52;6.45;;;2.50;;
47089;SDS011;32840;52.516;13.294;2023-05-28T10:16:41;5.90;;;2.47;;
47089;SDS011;32840;52.516;13.294;2023-05-28T10:19:26;5.82;;;2.25;;
47089;SDS011;32840;52.516;13.294;2023-05-28T10:22:16;8.65;;;2.67;;
47089;SDS011;32840;52.516;13.294;2023-05-28T10:25:01;9.60;;;3.20;;
47089;SDS011;32840;52.516;13.294;2023-05-28T10:27:47;5.95;;;2.95;;
47089;SDS011;32840;52.516;13.294;2023-05-28T10:30:38;5.38;;;2.35;;
47089;SDS011;32840;52.516;13.294;2023-05-28T10:33:23;4.75;;;2.22;;
47089;SDS011;32840;52.516;13.294;2023-05-28T10:36:13;5.90;;;2.55;;
47089;SDS011;32840;52.516;13.294;2023-05-28T10:38:59;5.53;;;2.72;;
47089;SDS011;32840;52.516;13.294;2023-05-28T10:41:44;7.60;;;2.42;;
47089;SDS011;32840;52.516;13.294;2023-05-28T10:44:47;5.40;;;2.28;;
47089;SDS011;32840;52.516;13.294;2023-05-28T10:47:35;6.22;;;2.78;;
47089;SDS011;32840;52.516;13.294;2023-05-28T10:50:21;7.15;;;2.47;;
47089;SDS011;32840;52.516;13.294;2023-05-28T10:53:07;6.10;;;2.80;;
47089;SDS011;32840;52.516;13.294;2023-05-28T10:55:56;5.45;;;2.50;;
47089;SDS011;32840;52.516;13.294;2023-05-28T10:58:41;6.28;;;3.17;;
47089;SDS011;32840;52.516;13.294;2023-05-28T11:01:27;4.95;;;2.60;;
47089;SDS011;32840;52.516;13.294;2023-05-28T11:04:12;5.40;;;2.90;;
47089;SDS011;32840;52.516;13.294;2023-05-28T11:06:57;6.88;;;2.47;;
47089;SDS011;32840;52.516;13.294;2023-05-28T11:09:41;6.13;;;2.83;;
47089;SDS011;32840;52.516;13.294;2023-05-28T11:12:31;6.93;;;2.70;;
47089;SDS011;32840;52.516;13.294;2023-05-28T11:15:16;5.18;;;2.85;;
47089;SDS011;32840;52.516;13.294;2023-05-28T11:18:01;5.22;;;2.70;;
47089;SDS011;32840;52.516;13.294;2023-05-28T11:20:46;7.65;;;2.75;;
47089;SDS011;32840;52.516;13.294;2023-05-28T11:23:31;4.93;;;2.80;;
47089;SDS011;32840;52.516;13.294;2023-05-28T11:26:22;4.40;;;1.92;;
47089;SDS011;32840;52.516;13.294;2023-05-28T11:29:08;5.80;;;3.00;;
47089;SDS011;32840;52.516;13.294;2023-05-28T11:31:54;9.15;;;4.25;;
47089;SDS011;32840;52.516;13.294;2023-05-28T11:34:39;5.00;;;2.95;;
47089;SDS011;32840;52.516;13.294;2023-05-28T11:37:25;4.82;;;2.13;;
47089;SDS011;32840;52.516;13.294;2023-05-28T11:40:12;5.30;;;2.63;;
47089;SDS011;32840;52.516;13.294;2023-05-28T11:42:58;5.15;;;2.47;;
47089;SDS011;32840;52.516;13.294;2023-05-28T11:45:44;5.40;;;2.63;;
47089;SDS011;32840;52.516;13.294;2023-05-28T11:48:29;5.85;;;3.00;;
47089;SDS011;32840;52.516;13.294;2023-05-28T11:51:14;4.53;;;2.53;;
47089;SDS011;32840;52.516;13.294;2023-05-28T11:53:59;6.75;;;2.70;;
47089;SDS011;32840;52.516;13.294;2023-05-28T11:56:46;5.07;;;2.45;;
47089;SDS011;32840;52.516;13.294;2023-05-28T11:59:32;8.68;;;2.75;;
47089;SDS011;32840;52.516;13.294;2023-05-28T12:02:19;4.85;;;2.38;;
47089;SDS011;32840;52.516;13.294;2023-05-28T12:05:07;6.35;;;2.55;;
47089;SDS011;32840;52.516;13.294;2023-05-28T12:07:52;5.65;;;2.95;;
47089;SDS011;32840;52.516;13.294;2023-05-28T12:10:38;4.93;;;2.08;;
47089;SDS011;32840;52.516;13.294;2023-05-28T12:13:23;8.82;;;6.28;;
47089;SDS011;32840;52.516;13.294;2023-05-28T12:16:15;7.57;;;2.70;;
47089;SDS011;32840;52.516;13.294;2023-05-28T12:19:00;4.50;;;2.55;;
47089;SDS011;32840;52.516;13.294;2023-05-28T12:21:46;7.40;;;3.80;;
47089;SDS011;32840;52.516;13.294;2023-05-28T12:24:31;7.47;;;3.40;;
47089;SDS011;32840;52.516;13.294;2023-05-28T12:27:15;4.05;;;2.25;;
47089;SDS011;32840;52.516;13.294;2023-05-28T12:30:00;5.43;;;2.80;;
47089;SDS011;32840;52.516;13.294;2023-05-28T12:32:45;7.32;;;3.00;;
47089;SDS011;32840;52.516;13.294;2023-05-28T12:35:30;7.43;;;2.40;;
47089;SDS011;32840;52.516;13.294;2023-05-28T12:38:15;5.20;;;2.50;;
47089;SDS011;32840;52.516;13.294;2023-05-28T12:41:00;8.55;;;2.85;;
47089;SDS011;32840;52.516;13.294;2023-05-28T12:43:45;7.82;;;3.05;;
47089;SDS011;32840;52.516;13.294;2023-05-28T12:46:29;5.35;;;2.40;;
47089;SDS011;32840;52.516;13.294;2023-05-28T12:49:14;5.90;;;2.97;;
47089;SDS011;32840;52.516;13.294;2023-05-28T12:51:59;11.68;;;6.22;;
47089;SDS011;32840;52.516;13.294;2023-05-28T12:54:44;5.03;;;2.83;;
47089;SDS011;32840;52.516;13.294;2023-05-28T12:57:29;6.57;;;3.40;;
47089;SDS011;32840;52.516;13.294;2023-05-28T13:00:14;6.85;;;2.30;;
47089;SDS011;32840;52.516;13.294;2023-05-28T13:02:59;6.40;;;2.50;;
47089;SDS011;32840;52.516;13.294;2023-05-28T13:05:46;4.63;;;2.42;;
47089;SDS011;32840;52.516;13.294;2023-05-28T13:08:31;4.35;;;2.35;;
47089;SDS011;32840;52.516;13.294;2023-05-28T13:11:16;7.43;;;2.33;;
47089;SDS011;32840;52.516;13.294;2023-05-28T13:14:01;6.03;;;2.55;;
47089;SDS011;32840;52.516;13.294;2023-05-28T13:16:46;9.07;;;2.85;;
47089;SDS011;32840;52.516;13.294;2023-05-28T13:19:31;4.13;;;2.58;;
47089;SDS011;32840;52.516;13.294;2023-05-28T13:22:16;5.93;;;2.67;;
47089;SDS011;32840;52.516;13.294;2023-05-28T13:25:01;4.15;;;2.30;;
47089;SDS011;32840;52.516;13.294;2023-05-28T13:27:48;5.25;;;2.63;;
47089;SDS011;32840;52.516;13.294;2023-05-28T13:30:33;7.90;;;2.42;;
47089;SDS011;32840;52.516;13.294;2023-05-28T13:33:19;7.57;;;2.63;;
47089;SDS011;32840;52.516;13.294;2023-05-28T13:36:04;8.18;;;2.70;;
47089;SDS011;32840;52.516;13.294;2023-05-28T13:38:50;6.00;;;2.38;;
47089;SDS011;32840;52.516;13.294;2023-05-28T13:41:36;4.32;;;2.53;;
47089;SDS011;32840;52.516;13.294;2023-05-28T13:44:21;5.82;;;2.35;;
47089;SDS011;32840;52.516;13.294;2023-05-28T13:47:08;5.88;;;2.58;;
47089;SDS011;32840;52.516;13.294;2023-05-28T13:49:53;6.82;;;2.72;;
47089;SDS011;32840;52.516;13.294;2023-05-28T13:52:38;6.82;;;2.80;;
47089;SDS011;32840;52.516;13.294;2023-05-28T13:55:23;6.07;;;2.78;;
47089;SDS011;32840;52.516;13.294;2023-05-28T13:58:07;8.52;;;3.00;;
47089;SDS011;32840;52.516;13.294;2023-05-28T14:00:52;7.63;;;2.75;;
47089;SDS011;32840;52.516;13.294;2023-05-28T14:03:38;7.18;;;2.55;;
47089;SDS011;32840;52.516;13.294;2023-05-28T14:06:23;6.93;;;2.83;;
47089;SDS011;32840;52.516;13.294;2023-05-28T14:09:08;6.95;;;3.20;;
47089;SDS011;32840;52.516;13.294;2023-05-28T14:11:53;9.90;;;2.85;;
47089;SDS011;32840;52.516;13.294;2023-05-28T14:14:39;4.45;;;2.35;;
47089;SDS011;32840;52.516;13.294;2023-05-28T14:17:24;7.00;;;2.30;;
47089;SDS011;32840;52.516;13.294;2023-05-28T14:20:09;3.92;;;2.65;;
47089;SDS011;32840;52.516;13.294;2023-05-28T14:22:54;5.72;;;2.80;;
47089;SDS011;32840;52.516;13.294;2023-05-28T14:25:39;11.05;;;2.90;;
47089;SDS011;32840;52.516;13.294;2023-05-28T14:28:24;5.25;;;2.47;;
47089;SDS011;32840;52.516;13.294;2023-05-28T14:31:11;4.53;;;2.47;;
47089;SDS011;32840;52.516;13.294;2023-05-28T14:33:55;5.72;;;2.67;;
47089;SDS011;32840;52.516;13.294;2023-05-28T14:36:40;4.28;;;2.50;;
47089;SDS011;32840;52.516;13.294;2023-05-28T14:39:25;7.72;;;2.75;;
47089;SDS011;32840;52.516;13.294;2023-05-28T14:42:11;6.32;;;2.30;;
47089;SDS011;32840;52.516;13.294;2023-05-28T14:44:56;7.07;;;2.90;;
47089;SDS011;32840;52.516;13.294;2023-05-28T14:47:42;5.95;;;2.42;;
47089;SDS011;32840;52.516;13.294;2023-05-28T14:50:27;5.85;;;2.30;;
47089;SDS011;32840;52.516;13.294;2023-05-28T14:53:12;9.10;;;4.75;;
47089;SDS011;32840;52.516;13.294;2023-05-28T14:55:57;4.85;;;3.03;;
47089;SDS011;32840;52.516;13.294;2023-05-28T14:58:42;14.88;;;7.88;;
47089;SDS011;32840;52.516;13.294;2023-05-28T15:01:28;6.45;;;2.53;;
47089;SDS011;32840;52.516;13.294;2023-05-28T15:04:13;6.00;;;2.85;;
47089;SDS011;32840;52.516;13.294;2023-05-28T15:06:59;4.60;;;3.03;;
47089;SDS011;32840;52.516;13.294;2023-05-28T15:09:45;6.57;;;3.08;;
47089;SDS011;32840;52.516;13.294;2023-05-28T15:12:31;6.60;;;3.40;;
47089;SDS011;32840;52.516;13.294;2023-05-28T15:15:16;5.53;;;3.58;;
47089;SDS011;32840;52.516;13.294;2023-05-28T15:18:01;7.60;;;2.75;;
47089;SDS011;32840;52.516;13.294;2023-05-28T15:20:46;5.95;;;2.70;;
47089;SDS011;32840;52.516;13.294;2023-05-28T15:23:31;5.53;;;3.13;;
47089;SDS011;32840;52.516;13.294;2023-05-28T15:26:17;4.15;;;2.50;;
47089;SDS011;32840;52.516;13.294;2023-05-28T15:29:02;10.40;;;6.18;;
47089;SDS011;32840;52.516;13.294;2023-05-28T15:31:48;4.63;;;2.35;;
47089;SDS011;32840;52.516;13.294;2023-05-28T15:34:35;9.93;;;3.38;;
47089;SDS011;32840;52.516;13.294;2023-05-28T15:37:21;8.68;;;6.03;;
47089;SDS011;32840;52.516;13.294;2023-05-28T15:40:07;9.00;;;3.70;;
47089;SDS011;32840;52.516;13.294;2023-05-28T15:42:53;10.02;;;3.70;;
47089;SDS011;32840;52.516;13.294;2023-05-28T15:45:39;5.55;;;2.22;;
47089;SDS011;32840;52.516;13.294;2023-05-28T15:48:24;5.13;;;2.55;;
47089;SDS011;32840;52.516;13.294;2023-05-28T15:51:10;5.45;;;2.83;;
47089;SDS011;32840;52.516;13.294;2023-05-28T15:53:56;5.55;;;2.45;;
47089;SDS011;32840;52.516;13.294;2023-05-28T15:56:41;6.55;;;3.30;;
47089;SDS011;32840;52.516;13.294;2023-05-28T15:59:27;5.07;;;3.38;;
47089;SDS011;32840;52.516;13.294;2023-05-28T16:02:12;5.72;;;2.63;;
47089;SDS011;32840;52.516;13.294;2023-05-28T16:05:00;11.55;;;7.18;;
47089;SDS011;32840;52.516;13.294;2023-05-28T16:07:45;14.27;;;10.15;;
47089;SDS011;32840;52.516;13.294;2023-05-28T16:10:32;7.18;;;3.45;;
47089;SDS011;32840;52.516;13.294;2023-05-28T16:13:20;7.45;;;4.53;;
47089;SDS011;32840;52.516;13.294;2023-05-28T16:16:10;6.40;;;3.35;;
47089;SDS011;32840;52.516;13.294;2023-05-28T16:18:57;4.85;;;2.85;;
47089;SDS011;32840;52.516;13.294;2023-05-28T16:21:42;5.25;;;3.28;;